< Typhoon 199316 1993 Season Typhoon 199318 >
Typhoon 199317 (CECIL)
General InformationTrack Information on Google MapsDetailed Wind InformationList of All Images || Disaster Info.ResourceGoogle EarthGE AnimationAtom FeedGeoJSON
Detalied Best Track (Time Zone = UTC)
Year Month Day Hour Lat. Long. Pressure (hPa) Wind (kt) Class Image Chart
1993 9 22 18 14.0 150.2 1004 0 2 Image Chart
1993 9 23 00 14.0 150.0 1004 0 2 Image Chart
1993 9 23 06 14.1 149.8 1000 0 2 Image Chart
1993 9 23 12 14.2 149.6 998 0 2 Image Chart
1993 9 23 18 14.2 149.6 996 35 3 Image Chart
1993 9 24 00 14.4 149.3 992 45 3 Image Chart
1993 9 24 06 15.2 148.6 985 50 4 Image Chart
1993 9 24 12 16.3 148.1 980 55 4 Image Chart
1993 9 24 18 17.9 147.2 975 60 4 Image Chart
1993 9 25 00 19.3 146.5 965 70 5 Image Chart
1993 9 25 06 20.8 145.7 960 75 5 Image Chart
1993 9 25 12 21.8 145.1 955 75 5 Image Chart
1993 9 25 18 22.8 144.8 950 80 5 Image Chart
1993 9 26 00 24.0 144.5 950 80 5 Image Chart
1993 9 26 06 24.8 144.9 950 80 5 Image Chart
1993 9 26 09 25.3 145.3 950 80 5 Image Chart
1993 9 26 12 25.9 145.7 950 80 5 Image Chart
1993 9 26 15 26.4 146.1 950 80 5 Image Chart
1993 9 26 18 27.1 147.0 955 75 5 Image Chart
1993 9 26 21 27.8 147.8 955 75 5 Image Chart
1993 9 27 00 28.7 148.6 960 70 5 Image Chart
1993 9 27 06 30.9 150.8 965 70 5 Image Chart
1993 9 27 12 33.0 152.7 970 65 5 Image Chart
1993 9 27 18 35.1 155.1 975 60 4 Image Chart
1993 9 28 00 39.0 159.0 980 0 6 Image Chart
1993 9 28 06 43.5 165.5 982 0 6 Image Chart
1993 9 28 12 46.0 168.0 982 0 6 Image Chart
1993 9 28 18 49.0 172.5 980 0 6 Image Chart
1993 9 29 00 50.0 177.0 978 0 6 Image Chart
1993 9 29 06 52.0 182.5 976 0 6 Image Chart
Japan Meteorological Agency Best Track Data | Correction Date : 1994-01-10
< Typhoon 199316 1993 Season Typhoon 199318 >

Help